createdAt,value
2018-02-14T00:00:07.683Z,13.53
2018-02-14T00:02:35.945Z,18.10
2018-02-14T00:05:04.212Z,11.60
2018-02-14T00:07:32.492Z,16.63
2018-02-14T00:10:00.760Z,15.47
2018-02-14T00:12:29.042Z,16.93
2018-02-14T00:14:57.464Z,20.50
2018-02-14T00:17:25.932Z,18.50
2018-02-14T00:19:54.185Z,11.80
2018-02-14T00:22:22.473Z,15.17
2018-02-14T00:24:50.744Z,17.00
2018-02-14T00:27:19.034Z,14.70
2018-02-14T00:29:47.299Z,15.40
2018-02-14T00:32:15.568Z,13.00
2018-02-14T00:34:43.851Z,13.40
2018-02-14T00:37:12.133Z,14.97
2018-02-14T00:39:40.428Z,13.00
2018-02-14T00:42:08.685Z,12.57
2018-02-14T00:44:36.995Z,14.97
2018-02-14T00:47:05.461Z,18.30
2018-02-14T00:49:33.732Z,14.30
2018-02-14T00:52:01.998Z,14.23
2018-02-14T00:54:30.267Z,10.10
2018-02-14T00:56:58.570Z,15.80
2018-02-14T00:59:26.892Z,12.67
2018-02-14T01:01:56.557Z,23.63
2018-02-14T01:04:24.855Z,15.37
2018-02-14T01:06:53.886Z,23.67
2018-02-14T01:09:22.914Z,13.40
2018-02-14T01:11:51.305Z,18.80
2018-02-14T01:14:19.568Z,19.40
2018-02-14T01:16:47.848Z,15.60
2018-02-14T01:19:16.908Z,15.53
2018-02-14T01:21:50.039Z,17.73
2018-02-14T01:24:18.294Z,18.43
2018-02-14T01:26:46.573Z,16.27
2018-02-14T01:29:14.844Z,14.70
2018-02-14T01:31:43.121Z,20.00
2018-02-14T01:34:11.388Z,17.43
2018-02-14T01:36:39.672Z,23.27
2018-02-14T01:39:07.939Z,15.17
2018-02-14T01:41:36.267Z,18.30
2018-02-14T01:44:04.515Z,12.80
2018-02-14T01:46:32.835Z,17.53
2018-02-14T01:49:02.598Z,13.80
2018-02-14T01:51:30.898Z,12.77
2018-02-14T01:53:59.152Z,15.97
2018-02-14T01:56:27.448Z,17.80
2018-02-14T01:58:55.752Z,15.07
2018-02-14T02:01:24.031Z,15.80
2018-02-14T02:03:52.438Z,16.30
2018-02-14T02:06:21.468Z,13.53
2018-02-14T02:08:49.752Z,15.20
2018-02-14T02:11:18.021Z,23.87
2018-02-14T02:13:46.333Z,17.30
2018-02-14T02:16:14.589Z,17.10
2018-02-14T02:18:42.874Z,18.00
2018-02-14T02:21:11.139Z,17.37
2018-02-14T02:23:39.435Z,14.53
2018-02-14T02:26:07.720Z,15.23
2018-02-14T02:28:36.024Z,12.90
2018-02-14T02:31:05.053Z,12.90
2018-02-14T02:33:33.367Z,16.20
2018-02-14T02:36:01.648Z,14.50
2018-02-14T02:38:30.020Z,14.77
2018-02-14T02:40:58.293Z,19.67
2018-02-14T02:43:26.569Z,15.03
2018-02-14T02:45:54.857Z,21.13
2018-02-14T02:48:23.137Z,16.80
2018-02-14T02:50:51.414Z,17.43
2018-02-14T02:53:19.672Z,14.90
2018-02-14T02:55:47.969Z,15.93
2018-02-14T02:58:16.252Z,18.37
2018-02-14T03:00:44.619Z,22.77
2018-02-14T03:03:13.176Z,17.73
2018-02-14T03:05:41.720Z,16.93
2018-02-14T03:08:10.008Z,17.63
2018-02-14T03:10:39.059Z,22.97
2018-02-14T03:13:07.348Z,13.33
2018-02-14T03:15:35.647Z,20.90
2018-02-14T03:18:03.923Z,20.90
2018-02-14T03:20:32.204Z,18.67
2018-02-14T03:23:01.241Z,16.63
2018-02-14T03:25:29.500Z,19.10
2018-02-14T03:27:57.912Z,20.57
2018-02-14T03:30:26.310Z,15.03
2018-02-14T03:32:54.688Z,15.97
2018-02-14T03:35:22.940Z,17.40
2018-02-14T03:37:51.241Z,20.27
2018-02-14T03:40:19.519Z,21.07
2018-02-14T03:42:47.808Z,19.10
2018-02-14T03:45:16.098Z,19.87
2018-02-14T03:47:44.371Z,18.37
2018-02-14T03:50:12.646Z,15.70
2018-02-14T03:52:40.928Z,18.20
2018-02-14T03:55:09.197Z,20.13
2018-02-14T03:57:37.478Z,19.30
2018-02-14T04:00:05.850Z,23.47
2018-02-14T04:02:34.131Z,17.20
2018-02-14T04:05:02.408Z,18.90
2018-02-14T04:07:30.674Z,19.77
2018-02-14T04:09:58.961Z,20.20
2018-02-14T04:12:27.327Z,19.53
2018-02-14T04:14:55.706Z,26.27
2018-02-14T04:17:23.987Z,18.60
2018-02-14T04:19:52.286Z,18.60
2018-02-14T04:22:20.550Z,17.63
2018-02-14T04:24:48.837Z,17.97
2018-02-14T04:27:17.095Z,20.90
2018-02-14T04:29:46.889Z,18.77
2018-02-14T04:32:15.284Z,21.63
2018-02-14T04:34:43.551Z,13.70
2018-02-14T04:37:11.827Z,18.23
2018-02-14T04:39:40.121Z,23.33
2018-02-14T04:42:08.494Z,19.63
2018-02-14T04:44:36.773Z,16.10
2018-02-14T04:47:05.068Z,17.83
2018-02-14T04:49:33.331Z,17.93
2018-02-14T04:52:01.602Z,16.00
2018-02-14T04:54:29.880Z,26.10
2018-02-14T04:56:58.241Z,15.23
2018-02-14T04:59:26.514Z,16.80
2018-02-14T05:01:54.830Z,17.63
2018-02-14T05:04:23.113Z,20.90
2018-02-14T05:06:51.396Z,18.23
2018-02-14T05:09:20.460Z,16.30
2018-02-14T05:11:48.858Z,17.77
2018-02-14T05:14:17.223Z,20.73
2018-02-14T05:16:45.499Z,22.97
2018-02-14T05:19:13.771Z,21.10
2018-02-14T05:21:42.052Z,19.50
2018-02-14T05:24:10.332Z,19.40
2018-02-14T05:26:38.625Z,15.87
2018-02-14T05:29:06.885Z,20.10
2018-02-14T05:31:35.176Z,20.47
2018-02-14T05:34:03.540Z,24.83
2018-02-14T05:36:31.835Z,31.07
2018-02-14T05:39:00.100Z,24.90
2018-02-14T05:41:28.475Z,26.80
2018-02-14T05:43:56.773Z,24.60
2018-02-14T05:46:25.024Z,22.73
2018-02-14T05:48:53.311Z,22.53
2018-02-14T05:51:21.599Z,23.13
2018-02-14T05:53:49.968Z,23.67
2018-02-14T05:56:18.409Z,22.70
2018-02-14T05:58:46.688Z,19.47
2018-02-14T06:01:15.722Z,28.80
2018-02-14T06:03:44.037Z,28.17
2018-02-14T06:06:12.338Z,27.47
2018-02-14T06:08:40.627Z,25.37
2018-02-14T06:11:08.908Z,31.53
2018-02-14T06:13:37.970Z,32.53
2018-02-14T06:16:06.272Z,36.77
2018-02-14T06:18:34.553Z,26.37
2018-02-14T06:21:02.864Z,24.27
2018-02-14T06:23:31.153Z,30.97
2018-02-14T06:26:00.004Z,25.00
2018-02-14T06:28:28.423Z,29.03
2018-02-14T06:30:56.744Z,30.63
2018-02-14T06:33:25.027Z,27.17
2018-02-14T06:35:53.304Z,28.23
2018-02-14T06:38:21.596Z,29.90
2018-02-14T06:40:50.651Z,23.20
2018-02-14T06:43:18.977Z,25.97
2018-02-14T06:45:48.028Z,25.30
2018-02-14T06:48:16.323Z,25.07
2018-02-14T06:50:44.802Z,21.73
2018-02-14T06:53:13.078Z,21.50
2018-02-14T06:55:41.364Z,29.13
2018-02-14T06:58:09.646Z,27.30
2018-02-14T07:00:37.960Z,18.87
2018-02-14T07:03:06.248Z,26.40
2018-02-14T07:05:34.544Z,30.50
2018-02-14T07:08:02.852Z,40.33
2018-02-14T07:10:31.232Z,29.50
2018-02-14T07:13:01.034Z,25.23
2018-02-14T07:15:29.345Z,32.63
2018-02-14T07:17:58.383Z,24.23
2018-02-14T07:20:26.672Z,31.77
2018-02-14T07:22:54.965Z,24.80
2018-02-14T07:25:23.258Z,36.17
2018-02-14T07:27:51.547Z,25.10
2018-02-14T07:30:20.616Z,25.17
2018-02-14T07:32:49.098Z,29.97
2018-02-14T07:35:17.381Z,30.33
2018-02-14T07:37:45.754Z,35.27
2018-02-14T07:40:14.057Z,34.13
2018-02-14T07:42:42.312Z,24.73
2018-02-14T07:45:10.672Z,33.10
2018-02-14T07:47:38.968Z,32.93
2018-02-14T07:50:07.266Z,31.93
2018-02-14T07:52:36.308Z,31.73
2018-02-14T07:55:04.568Z,29.00
2018-02-14T07:57:32.861Z,44.33
2018-02-14T08:00:01.125Z,34.20
2018-02-14T08:02:29.426Z,28.70
2018-02-14T08:04:57.700Z,28.13
2018-02-14T08:07:26.001Z,47.23
2018-02-14T08:09:54.280Z,24.30
2018-02-14T08:12:22.560Z,31.10
2018-02-14T08:14:50.933Z,28.57
2018-02-14T08:17:19.200Z,42.87
2018-02-14T08:19:47.476Z,33.47
2018-02-14T08:22:15.769Z,39.23
2018-02-14T08:24:44.042Z,40.63
2018-02-14T08:27:12.309Z,32.57
2018-02-14T08:29:40.597Z,45.97
2018-02-14T08:32:08.975Z,35.83
2018-02-14T08:34:37.258Z,41.60
2018-02-14T08:37:05.592Z,33.03
2018-02-14T08:39:33.876Z,28.97
2018-02-14T08:42:02.143Z,32.60
2018-02-14T08:44:30.429Z,38.47
2018-02-14T08:46:58.742Z,34.70
2018-02-14T08:49:27.052Z,29.13
2018-02-14T08:51:56.085Z,41.27
2018-02-14T08:54:24.389Z,38.97
2018-02-14T08:56:52.770Z,30.53
2018-02-14T08:59:21.055Z,35.73
2018-02-14T09:01:49.325Z,28.47
2018-02-14T09:04:17.611Z,35.93
2018-02-14T09:06:46.824Z,39.13
2018-02-14T09:09:15.897Z,32.00
2018-02-14T09:11:44.171Z,30.43
2018-02-14T09:14:12.553Z,31.37
2018-02-14T09:16:40.816Z,35.47
2018-02-14T09:19:09.082Z,30.43
2018-02-14T09:21:37.392Z,30.23
2018-02-14T09:24:05.652Z,30.90
2018-02-14T09:26:33.940Z,31.47
2018-02-14T09:29:02.227Z,26.53
2018-02-14T09:31:32.041Z,31.07
2018-02-14T09:34:00.312Z,27.20
2018-02-14T09:36:28.589Z,30.50
2018-02-14T09:38:57.652Z,28.03
2018-02-14T09:41:25.928Z,24.53
2018-02-14T09:43:54.234Z,31.97
2018-02-14T09:46:22.504Z,26.90
2018-02-14T09:48:50.772Z,28.27
2018-02-14T09:51:19.198Z,25.03
2018-02-14T09:53:48.227Z,26.90
2018-02-14T09:56:16.522Z,29.70
2018-02-14T09:58:44.783Z,29.37
2018-02-14T10:01:13.101Z,28.53
2018-02-14T10:03:41.486Z,22.33
2018-02-14T10:06:11.264Z,31.83
2018-02-14T10:08:39.565Z,28.67
2018-02-14T10:11:07.948Z,29.87
2018-02-14T10:13:36.327Z,27.77
2018-02-14T10:16:04.600Z,33.17
2018-02-14T10:18:32.881Z,24.90
2018-02-14T10:21:01.194Z,26.37
2018-02-14T10:23:30.271Z,27.93
2018-02-14T10:25:58.528Z,31.87
2018-02-14T10:28:26.925Z,23.07
2018-02-14T10:30:55.191Z,29.80
2018-02-14T10:33:23.488Z,32.60
2018-02-14T10:35:52.528Z,25.10
2018-02-14T10:38:20.828Z,29.67
2018-02-14T10:40:49.220Z,26.90
2018-02-14T10:43:18.276Z,28.37
2018-02-14T10:45:46.548Z,24.17
2018-02-14T10:48:14.951Z,22.83
2018-02-14T10:50:43.210Z,24.70
2018-02-14T10:53:11.481Z,28.90
2018-02-14T10:55:39.779Z,26.40
2018-02-14T10:58:08.065Z,25.10
2018-02-14T11:00:42.044Z,28.57
2018-02-14T11:03:16.118Z,29.83
2018-02-14T11:08:47.968Z,33.23
2018-02-14T11:11:16.260Z,27.37
2018-02-14T11:13:44.547Z,30.17
2018-02-14T11:16:12.808Z,33.80
2018-02-14T11:18:41.099Z,25.97
2018-02-14T11:21:09.554Z,27.23
2018-02-14T11:23:37.870Z,25.93
2018-02-14T11:26:07.506Z,29.47
2018-02-14T11:28:35.764Z,23.60
2018-02-14T11:31:04.181Z,19.90
2018-02-14T11:33:32.434Z,24.03
2018-02-14T11:36:00.855Z,21.43
2018-02-14T11:38:29.107Z,28.20
2018-02-14T11:40:57.407Z,26.93
2018-02-14T11:43:25.668Z,23.60
2018-02-14T11:45:54.066Z,27.57
2018-02-14T11:48:22.329Z,22.13
2018-02-14T11:50:50.624Z,27.53
2018-02-14T11:53:18.890Z,24.60
2018-02-14T11:55:47.200Z,24.37
2018-02-14T11:58:16.243Z,26.20
2018-02-14T12:00:44.506Z,25.80
2018-02-14T12:03:12.818Z,24.40
2018-02-14T12:05:41.722Z,23.90
2018-02-14T12:08:10.108Z,25.70
2018-02-14T12:10:38.385Z,30.87
2018-02-14T12:13:06.682Z,26.30
2018-02-14T12:15:35.717Z,21.30
2018-02-14T12:18:04.008Z,26.67
2018-02-14T12:20:32.272Z,22.93
2018-02-14T12:23:00.543Z,14.70
2018-02-14T12:25:28.805Z,12.50
2018-02-14T12:27:57.085Z,12.23
2018-02-14T12:30:25.414Z,10.40
2018-02-14T12:32:53.668Z,6.97
2018-02-14T12:35:21.931Z,14.00
2018-02-14T12:37:50.342Z,12.03
2018-02-14T12:40:18.616Z,10.93
2018-02-14T12:42:46.900Z,12.20
2018-02-14T12:45:15.172Z,14.07
2018-02-14T12:47:43.444Z,12.70
2018-02-14T12:50:11.729Z,9.53
2018-02-14T12:52:40.017Z,11.57
2018-02-14T12:55:08.347Z,12.20
2018-02-14T12:57:36.705Z,11.90
2018-02-14T13:00:05.768Z,11.20
2018-02-14T13:02:34.137Z,12.43
2018-02-14T13:05:02.415Z,12.40
2018-02-14T13:07:30.667Z,16.87
2018-02-14T13:09:59.070Z,15.57
2018-02-14T13:12:27.319Z,15.47
2018-02-14T13:14:55.628Z,15.93
2018-02-14T13:17:23.897Z,15.60
2018-02-14T13:19:52.384Z,14.27
2018-02-14T13:22:20.658Z,15.00
2018-02-14T13:24:49.040Z,16.80
2018-02-14T13:27:17.303Z,16.93
2018-02-14T13:29:45.592Z,16.00
2018-02-14T13:32:13.971Z,12.23
2018-02-14T13:34:42.353Z,14.97
2018-02-14T13:37:10.732Z,25.47
2018-02-14T13:39:39.111Z,20.57
2018-02-14T13:42:07.378Z,18.37
2018-02-14T13:44:35.660Z,15.87
2018-02-14T13:47:03.943Z,18.93
2018-02-14T13:49:32.190Z,19.07
2018-02-14T13:52:00.508Z,20.10
2018-02-14T13:54:29.596Z,22.13
2018-02-14T13:56:57.974Z,18.03
2018-02-14T13:59:26.280Z,19.33
2018-02-14T14:01:55.336Z,15.73
2018-02-14T14:04:23.595Z,17.20
2018-02-14T14:06:51.856Z,14.03
2018-02-14T14:09:20.123Z,14.00
2018-02-14T14:11:49.181Z,12.30
2018-02-14T14:14:17.461Z,12.40
2018-02-14T14:16:45.716Z,11.10
2018-02-14T14:19:14.106Z,14.63
2018-02-14T14:21:42.364Z,12.33
2018-02-14T14:24:10.644Z,14.03
2018-02-14T14:26:38.895Z,10.80
2018-02-14T14:29:07.182Z,15.17
2018-02-14T14:31:35.446Z,9.63
2018-02-14T14:34:03.772Z,11.43
2018-02-14T14:36:32.053Z,13.57
2018-02-14T14:39:00.357Z,11.47
2018-02-14T14:41:29.384Z,12.47
2018-02-14T14:43:57.689Z,13.13
2018-02-14T14:46:25.974Z,15.10
2018-02-14T14:48:54.245Z,17.30
2018-02-14T14:51:22.572Z,16.77
2018-02-14T14:53:51.628Z,14.33
2018-02-14T14:56:19.930Z,18.03
2018-02-14T14:58:48.976Z,20.40
2018-02-14T15:01:17.260Z,16.70
2018-02-14T15:03:45.551Z,19.97
2018-02-14T15:06:13.840Z,24.07
2018-02-14T15:08:42.113Z,22.23
2018-02-14T15:11:10.400Z,20.20
2018-02-14T15:13:38.695Z,25.33
2018-02-14T15:16:07.889Z,21.20
2018-02-14T15:18:36.932Z,21.57
2018-02-14T15:21:05.224Z,20.00
2018-02-14T15:23:33.502Z,19.63
2018-02-14T15:26:01.902Z,18.40
2018-02-14T15:28:30.269Z,18.70
2018-02-14T15:30:58.583Z,22.83
2018-02-14T15:33:26.852Z,18.10
2018-02-14T15:35:55.887Z,23.10
2018-02-14T15:38:24.238Z,20.40
2018-02-14T15:40:53.276Z,19.17
2018-02-14T15:43:21.676Z,16.33
2018-02-14T15:45:49.948Z,19.80
2018-02-14T15:48:18.236Z,21.93
2018-02-14T15:50:48.022Z,16.87
2018-02-14T15:53:16.326Z,20.30
2018-02-14T15:55:45.514Z,24.03
2018-02-14T15:58:13.791Z,17.23
2018-02-14T16:00:42.066Z,21.37
2018-02-14T16:03:10.343Z,21.20
2018-02-14T16:05:38.728Z,22.17
2018-02-14T16:08:07.103Z,28.13
2018-02-14T16:10:35.482Z,32.83
2018-02-14T16:13:03.765Z,29.00
2018-02-14T16:15:32.060Z,28.60
2018-02-14T16:18:01.103Z,32.50
2018-02-14T16:20:29.395Z,33.60
2018-02-14T16:22:57.668Z,35.03
2018-02-14T16:25:25.963Z,38.60
2018-02-14T16:27:54.240Z,30.33
2018-02-14T16:30:22.526Z,36.87
2018-02-14T16:32:50.820Z,30.37
2018-02-14T16:35:19.872Z,29.90
2018-02-14T16:37:48.179Z,30.97
2018-02-14T16:40:16.549Z,35.90
2018-02-14T16:42:44.931Z,30.30
2018-02-14T16:45:13.220Z,32.90
2018-02-14T16:47:41.591Z,25.80
2018-02-14T16:50:09.856Z,34.57
2018-02-14T16:52:38.151Z,32.90
2018-02-14T16:55:06.427Z,33.17
2018-02-14T16:57:34.707Z,32.73
2018-02-14T17:00:03.003Z,34.27
2018-02-14T17:02:32.061Z,37.97
2018-02-14T17:05:00.953Z,36.07
2018-02-14T17:07:29.260Z,36.73
2018-02-14T17:09:57.613Z,32.07
2018-02-14T17:12:25.904Z,43.97
2018-02-14T17:14:54.270Z,36.63
2018-02-14T17:17:22.552Z,38.03
2018-02-14T17:19:50.826Z,36.30
2018-02-14T17:22:19.089Z,39.63
2018-02-14T17:24:47.416Z,45.27
2018-02-14T17:27:16.454Z,37.50
2018-02-14T17:29:44.746Z,43.60
2018-02-14T17:32:13.033Z,47.23
2018-02-14T17:34:41.370Z,36.83
2018-02-14T17:37:10.381Z,38.13
2018-02-14T17:39:38.695Z,40.80
2018-02-14T17:42:07.058Z,39.50
2018-02-14T17:44:35.327Z,41.03
2018-02-14T17:47:03.618Z,38.00
2018-02-14T17:49:31.990Z,43.30
2018-02-14T17:52:00.272Z,52.60
2018-02-14T17:54:28.560Z,44.60
2018-02-14T17:56:56.828Z,42.13
2018-02-14T17:59:25.115Z,45.40
2018-02-14T18:01:53.408Z,51.07
2018-02-14T18:04:21.678Z,49.20
2018-02-14T18:06:49.973Z,48.70
2018-02-14T18:09:19.030Z,45.10
2018-02-14T18:11:47.616Z,55.70
2018-02-14T18:14:15.881Z,47.40
2018-02-14T18:16:44.176Z,51.67
2018-02-14T18:19:12.497Z,49.33
2018-02-14T18:21:41.544Z,44.00
2018-02-14T18:24:09.811Z,52.80
2018-02-14T18:26:38.114Z,60.47
2018-02-14T18:29:07.150Z,48.07
2018-02-14T18:31:35.547Z,50.53
2018-02-14T18:34:03.858Z,55.50
2018-02-14T18:36:32.144Z,50.67
2018-02-14T18:39:00.412Z,51.53
2018-02-14T18:41:28.712Z,49.87
2018-02-14T18:43:57.835Z,48.20
2018-02-14T18:46:26.123Z,50.30
2018-02-14T18:48:54.416Z,50.30
2018-02-14T18:51:22.725Z,47.50
2018-02-14T18:53:51.010Z,58.43
2018-02-14T18:56:19.279Z,61.97
2018-02-14T18:58:47.648Z,43.87
2018-02-14T19:01:16.024Z,40.73
2018-02-14T19:03:44.315Z,52.90
2018-02-14T19:06:12.601Z,45.70
2018-02-14T19:08:42.407Z,48.40
2018-02-14T19:11:10.685Z,44.23
2018-02-14T19:13:39.048Z,50.80
2018-02-14T19:16:07.308Z,53.80
2018-02-14T19:18:35.641Z,51.17
2018-02-14T19:21:04.698Z,47.90
2018-02-14T19:23:32.992Z,43.30
2018-02-14T19:26:01.284Z,45.40
2018-02-14T19:28:30.321Z,48.57
2018-02-14T19:30:58.882Z,43.70
2018-02-14T19:33:27.352Z,49.43
2018-02-14T19:35:56.467Z,41.03
2018-02-14T19:38:24.736Z,46.37
2018-02-14T19:40:53.029Z,50.33
2018-02-14T19:43:21.445Z,41.73
2018-02-14T19:45:49.787Z,44.57
2018-02-14T19:48:18.086Z,48.10
2018-02-14T19:50:46.396Z,56.13
2018-02-14T19:53:14.677Z,44.13
2018-02-14T19:55:43.013Z,45.83
2018-02-14T19:58:11.289Z,44.83
2018-02-14T20:00:39.568Z,53.53
2018-02-14T20:03:07.861Z,50.17
2018-02-14T20:05:36.244Z,58.60
2018-02-14T20:08:04.526Z,61.53
2018-02-14T20:10:32.799Z,54.30
2018-02-14T20:13:01.108Z,55.47
2018-02-14T20:15:30.144Z,64.40
2018-02-14T20:17:58.446Z,57.57
2018-02-14T20:20:26.728Z,57.63
2018-02-14T20:22:55.016Z,57.07
2018-02-14T20:25:23.284Z,58.03
2018-02-14T20:27:51.604Z,54.57
2018-02-14T20:30:19.887Z,50.00
2018-02-14T20:32:48.180Z,57.10
2018-02-14T20:35:16.461Z,55.27
2018-02-14T20:37:44.760Z,51.33
2018-02-14T20:40:13.076Z,55.87
2018-02-14T20:42:41.348Z,67.13
2018-02-14T20:45:10.415Z,56.77
2018-02-14T20:47:38.680Z,51.83
2018-02-14T20:50:07.028Z,62.87
2018-02-14T20:52:35.319Z,63.60
2018-02-14T20:55:03.616Z,60.03
2018-02-14T20:57:31.929Z,65.07
2018-02-14T21:05:08.321Z,68.63
2018-02-14T21:07:36.618Z,69.30
2018-02-14T21:10:04.960Z,67.00
2018-02-14T21:12:33.349Z,64.57
2018-02-14T21:15:01.757Z,53.87
2018-02-14T21:17:30.828Z,48.57
2018-02-14T21:19:59.167Z,67.20
2018-02-14T21:22:27.586Z,61.97
2018-02-14T21:24:55.886Z,55.17
2018-02-14T21:27:24.219Z,66.13
2018-02-14T21:29:52.540Z,74.00
2018-02-14T21:32:21.631Z,58.13
2018-02-14T21:34:50.447Z,51.27
2018-02-14T21:37:18.799Z,57.67
2018-02-14T21:39:47.107Z,55.53
2018-02-14T21:42:16.181Z,85.23
2018-02-14T21:44:44.535Z,64.50
2018-02-14T21:47:12.848Z,75.43
2018-02-14T21:49:41.913Z,58.50
2018-02-14T21:52:10.220Z,55.47
2018-02-14T21:54:39.285Z,62.57
2018-02-14T21:57:07.599Z,60.67
2018-02-14T21:59:36.668Z,47.23
2018-02-14T22:02:04.977Z,45.53
2018-02-14T22:04:34.038Z,55.90
2018-02-14T22:07:03.146Z,56.07
2018-02-14T22:09:31.429Z,56.83
2018-02-14T22:11:59.735Z,49.53
2018-02-14T22:14:28.083Z,50.77
2018-02-14T22:16:56.367Z,54.07
2018-02-14T22:19:25.459Z,38.60
2018-02-14T22:21:54.629Z,52.77
2018-02-14T22:24:22.931Z,46.50
2018-02-14T22:26:52.314Z,59.63
2018-02-14T22:29:20.615Z,53.10
2018-02-14T22:31:49.683Z,51.70
2018-02-14T22:34:17.987Z,52.53
2018-02-14T22:36:47.061Z,48.43
2018-02-14T22:39:15.395Z,59.07
2018-02-14T22:41:43.692Z,46.57
2018-02-14T22:44:12.000Z,49.50
2018-02-14T22:46:40.314Z,53.07
2018-02-14T22:49:09.392Z,50.10
2018-02-14T22:51:38.295Z,52.30
2018-02-14T22:54:07.495Z,43.63
2018-02-14T22:56:36.656Z,46.37
2018-02-14T22:59:04.956Z,44.70
2018-02-14T23:01:33.344Z,45.37
2018-02-14T23:04:01.716Z,47.73
2018-02-14T23:06:30.099Z,45.23
2018-02-14T23:08:59.173Z,42.97
2018-02-14T23:11:27.499Z,40.27
2018-02-14T23:13:55.802Z,44.47
2018-02-14T23:16:24.117Z,39.03
2018-02-14T23:18:52.455Z,36.57
2018-02-14T23:21:20.741Z,42.37
2018-02-14T23:23:49.047Z,41.30
2018-02-14T23:26:17.361Z,35.83
2018-02-14T23:28:45.648Z,38.27
2018-02-14T23:31:13.951Z,39.17
2018-02-14T23:33:42.248Z,39.10
2018-02-14T23:36:10.543Z,37.97
2018-02-14T23:38:38.826Z,42.40
2018-02-14T23:41:07.928Z,38.03
2018-02-14T23:43:36.975Z,33.80
2018-02-14T23:46:05.269Z,40.53
2018-02-14T23:48:33.577Z,32.73
2018-02-14T23:51:01.872Z,42.73
2018-02-14T23:53:30.296Z,41.80
2018-02-14T23:55:58.587Z,33.70
2018-02-14T23:58:26.896Z,33.60
